createdAt,value
2018-08-09T00:04:13.000Z,27.75
2018-08-09T00:14:13.000Z,27.68
2018-08-09T00:24:14.000Z,27.64
2018-08-09T00:34:13.000Z,27.64
2018-08-09T00:44:13.000Z,27.62
2018-08-09T00:54:13.000Z,27.59
2018-08-09T01:04:13.000Z,27.56
2018-08-09T01:14:13.000Z,27.52
2018-08-09T01:24:13.000Z,27.36
2018-08-09T01:34:13.000Z,27.39
2018-08-09T01:44:13.000Z,27.42
2018-08-09T01:54:13.000Z,27.31
2018-08-09T02:04:13.000Z,27.3
2018-08-09T02:14:13.000Z,27.31
2018-08-09T02:24:13.000Z,27.27
2018-08-09T02:34:13.000Z,27.23
2018-08-09T02:44:13.000Z,27.16
2018-08-09T02:54:13.000Z,27.12
2018-08-09T03:04:13.000Z,27.1
2018-08-09T03:14:13.000Z,27.01
2018-08-09T03:24:13.000Z,26.99
2018-08-09T03:34:13.000Z,26.9
2018-08-09T03:44:13.000Z,26.94
2018-08-09T03:54:13.000Z,26.91
2018-08-09T04:04:13.000Z,26.91
2018-08-09T04:14:13.000Z,26.88
2018-08-09T04:24:13.000Z,26.83
2018-08-09T04:34:13.000Z,26.84
2018-08-09T04:44:13.000Z,26.76
2018-08-09T04:54:13.000Z,26.75
2018-08-09T05:04:14.000Z,26.69
2018-08-09T05:14:14.000Z,26.67
2018-08-09T05:24:14.000Z,26.7
2018-08-09T05:34:14.000Z,26.65
2018-08-09T05:44:14.000Z,26.68
2018-08-09T05:54:14.000Z,26.62
2018-08-09T06:04:14.000Z,26.6
2018-08-09T06:14:14.000Z,26.58
2018-08-09T06:24:14.000Z,26.54
2018-08-09T06:34:14.000Z,26.55
2018-08-09T06:44:14.000Z,26.54
2018-08-09T06:54:14.000Z,26.53
2018-08-09T07:04:14.000Z,26.49
2018-08-09T07:14:14.000Z,26.47
2018-08-09T07:24:14.000Z,26.47
2018-08-09T07:34:14.000Z,26.51
2018-08-09T07:44:14.000Z,26.51
2018-08-09T07:54:14.000Z,26.43
2018-08-09T08:04:14.000Z,26.47
2018-08-09T08:14:14.000Z,26.54
2018-08-09T08:24:14.000Z,26.39
2018-08-09T08:34:14.000Z,26.48
2018-08-09T08:44:14.000Z,26.64
2018-08-09T08:54:14.000Z,26.65
2018-08-09T09:04:14.000Z,26.68
2018-08-09T09:14:14.000Z,26.71
2018-08-09T09:24:14.000Z,26.73
2018-08-09T09:34:14.000Z,26.82
2018-08-09T09:44:14.000Z,26.95
2018-08-09T09:54:14.000Z,27.03
2018-08-09T10:04:14.000Z,27.12
2018-08-09T10:14:14.000Z,27.31
2018-08-09T10:24:14.000Z,27.58
2018-08-09T10:34:14.000Z,27.57
2018-08-09T10:44:14.000Z,27.94
2018-08-09T10:54:14.000Z,28
2018-08-09T11:04:14.000Z,28.16
2018-08-09T11:14:14.000Z,28.03
2018-08-09T11:24:14.000Z,28.2
2018-08-09T11:34:14.000Z,28.44
2018-08-09T11:44:14.000Z,28.45
2018-08-09T11:54:14.000Z,28.64
2018-08-09T12:04:14.000Z,28.74
2018-08-09T12:14:14.000Z,28.86
2018-08-09T12:24:14.000Z,28.81
2018-08-09T12:34:14.000Z,28.95
2018-08-09T12:44:15.000Z,29.03
2018-08-09T12:54:14.000Z,28.91
2018-08-09T13:04:15.000Z,28.95
2018-08-09T13:14:15.000Z,28.84
2018-08-09T13:24:15.000Z,28.85
2018-08-09T13:34:15.000Z,28.86
2018-08-09T13:44:15.000Z,28.84
2018-08-09T13:54:15.000Z,28.88
2018-08-09T14:04:15.000Z,28.85
2018-08-09T14:14:15.000Z,28.75
2018-08-09T14:24:15.000Z,28.76
2018-08-09T14:34:15.000Z,28.14
2018-08-09T14:44:15.000Z,28.13
2018-08-09T14:54:15.000Z,27.99
2018-08-09T15:04:15.000Z,27.59
2018-08-09T15:14:15.000Z,27.21
2018-08-09T15:24:15.000Z,27.33
2018-08-09T15:34:15.000Z,27.2
2018-08-09T15:44:15.000Z,27.04
2018-08-09T15:54:15.000Z,26.84
2018-08-09T16:04:15.000Z,26.73
2018-08-09T16:14:15.000Z,26.67
2018-08-09T16:24:15.000Z,26.6
2018-08-09T16:34:15.000Z,26.66
2018-08-09T16:44:15.000Z,26.62
2018-08-09T16:54:15.000Z,26.67
2018-08-09T17:04:15.000Z,26.69
2018-08-09T17:14:15.000Z,26.77
2018-08-09T17:24:15.000Z,26.9
2018-08-09T17:34:15.000Z,26.87
2018-08-09T17:44:15.000Z,27.04
2018-08-09T17:54:15.000Z,27.04
2018-08-09T18:04:15.000Z,27.07
2018-08-09T18:14:15.000Z,27.07
2018-08-09T18:24:15.000Z,27.05
2018-08-09T18:44:15.000Z,27.02
2018-08-09T18:54:15.000Z,27.1
2018-08-09T19:14:15.000Z,26.91
2018-08-09T19:24:15.000Z,26.9
2018-08-09T19:34:15.000Z,26.66
2018-08-09T19:44:15.000Z,26.64
2018-08-09T19:54:15.000Z,26.57
2018-08-09T20:04:15.000Z,26.44
2018-08-09T20:14:15.000Z,26.33
2018-08-09T20:24:15.000Z,26.25
2018-08-09T20:34:15.000Z,26.21
2018-08-09T20:44:15.000Z,26.19
2018-08-09T20:54:15.000Z,26.13
2018-08-09T21:04:16.000Z,26.08
2018-08-09T21:14:16.000Z,25.87
2018-08-09T21:24:16.000Z,25.85
2018-08-09T21:34:16.000Z,25.54
2018-08-09T21:44:16.000Z,25.49
2018-08-09T21:54:16.000Z,25.35
2018-08-09T22:04:16.000Z,25.17
2018-08-09T22:14:16.000Z,25.17
2018-08-09T22:24:16.000Z,25.25
2018-08-09T22:34:16.000Z,25.11
2018-08-09T22:44:16.000Z,25.13
2018-08-09T22:54:16.000Z,25.08
2018-08-09T23:04:16.000Z,25.13
2018-08-09T23:14:16.000Z,25.07
2018-08-09T23:24:16.000Z,24.71
2018-08-09T23:34:17.000Z,24.88
2018-08-09T23:44:16.000Z,24.9
2018-08-09T23:54:16.000Z,24.8
